sensor_id;sensor_type;location;lat;lon;timestamp;temperature;humidity
14727;DHT22;7454;51.256;8.176;2023-12-20T00:02:06;6.10;84.30
14727;DHT22;7454;51.256;8.176;2023-12-20T00:04:38;6.30;84.40
14727;DHT22;7454;51.256;8.176;2023-12-20T00:07:10;6.20;84.50
14727;DHT22;7454;51.256;8.176;2023-12-20T00:09:42;6.10;84.40
14727;DHT22;7454;51.256;8.176;2023-12-20T00:12:14;6.30;84.40
14727;DHT22;7454;51.256;8.176;2023-12-20T00:14:46;6.30;84.50
14727;DHT22;7454;51.256;8.176;2023-12-20T00:17:18;6.10;84.40
14727;DHT22;7454;51.256;8.176;2023-12-20T00:19:50;6.20;84.50
14727;DHT22;7454;51.256;8.176;2023-12-20T00:22:22;6.20;84.50
14727;DHT22;7454;51.256;8.176;2023-12-20T00:24:54;6.20;84.50
14727;DHT22;7454;51.256;8.176;2023-12-20T00:27:27;6.20;84.50
14727;DHT22;7454;51.256;8.176;2023-12-20T00:29:53;6.20;84.50
14727;DHT22;7454;51.256;8.176;2023-12-20T00:32:26;6.20;84.50
14727;DHT22;7454;51.256;8.176;2023-12-20T00:34:58;6.30;84.60
14727;DHT22;7454;51.256;8.176;2023-12-20T00:37:30;6.30;84.60
14727;DHT22;7454;51.256;8.176;2023-12-20T00:40:16;6.30;84.60
14727;DHT22;7454;51.256;8.176;2023-12-20T00:42:48;6.30;84.60
14727;DHT22;7454;51.256;8.176;2023-12-20T00:45:20;6.30;84.50
14727;DHT22;7454;51.256;8.176;2023-12-20T00:47:52;6.50;84.60
14727;DHT22;7454;51.256;8.176;2023-12-20T00:50:24;6.30;84.60
14727;DHT22;7454;51.256;8.176;2023-12-20T00:53:00;6.30;84.60
14727;DHT22;7454;51.256;8.176;2023-12-20T00:55:32;6.30;84.60
14727;DHT22;7454;51.256;8.176;2023-12-20T00:57:58;6.50;84.70
14727;DHT22;7454;51.256;8.176;2023-12-20T01:00:31;6.30;84.70
14727;DHT22;7454;51.256;8.176;2023-12-20T01:03:04;6.30;84.60
14727;DHT22;7454;51.256;8.176;2023-12-20T01:05:36;6.30;84.70
14727;DHT22;7454;51.256;8.176;2023-12-20T01:08:08;6.30;84.70
14727;DHT22;7454;51.256;8.176;2023-12-20T01:10:40;6.30;84.70
14727;DHT22;7454;51.256;8.176;2023-12-20T01:13:12;6.30;84.70
14727;DHT22;7454;51.256;8.176;2023-12-20T01:15:44;6.30;84.70
14727;DHT22;7454;51.256;8.176;2023-12-20T01:18:16;6.30;84.70
14727;DHT22;7454;51.256;8.176;2023-12-20T01:20:48;6.30;84.70
14727;DHT22;7454;51.256;8.176;2023-12-20T01:23:20;6.30;84.70
14727;DHT22;7454;51.256;8.176;2023-12-20T01:25:52;6.30;84.70
14727;DHT22;7454;51.256;8.176;2023-12-20T01:28:24;6.30;84.60
14727;DHT22;7454;51.256;8.176;2023-12-20T01:30:57;6.30;83.80
14727;DHT22;7454;51.256;8.176;2023-12-20T01:33:29;6.30;83.60
14727;DHT22;7454;51.256;8.176;2023-12-20T01:35:55;6.20;83.50
14727;DHT22;7454;51.256;8.176;2023-12-20T01:38:29;6.20;82.50
14727;DHT22;7454;51.256;8.176;2023-12-20T01:41:23;6.10;82.00
14727;DHT22;7454;51.256;8.176;2023-12-20T01:43:55;6.10;82.30
14727;DHT22;7454;51.256;8.176;2023-12-20T01:46:34;6.10;82.50
14727;DHT22;7454;51.256;8.176;2023-12-20T01:49:00;6.10;82.40
14727;DHT22;7454;51.256;8.176;2023-12-20T01:51:32;6.00;82.20
14727;DHT22;7454;51.256;8.176;2023-12-20T01:54:05;6.00;82.30
14727;DHT22;7454;51.256;8.176;2023-12-20T01:56:37;6.00;82.30
14727;DHT22;7454;51.256;8.176;2023-12-20T01:59:10;6.00;82.00
14727;DHT22;7454;51.256;8.176;2023-12-20T02:01:42;6.00;82.30
14727;DHT22;7454;51.256;8.176;2023-12-20T02:04:14;6.00;82.80
14727;DHT22;7454;51.256;8.176;2023-12-20T02:06:47;6.00;83.20
14727;DHT22;7454;51.256;8.176;2023-12-20T02:09:20;5.90;82.20
14727;DHT22;7454;51.256;8.176;2023-12-20T02:11:52;6.00;82.10
14727;DHT22;7454;51.256;8.176;2023-12-20T02:14:24;5.90;82.00
14727;DHT22;7454;51.256;8.176;2023-12-20T02:16:50;5.90;81.50
14727;DHT22;7454;51.256;8.176;2023-12-20T02:19:22;5.80;80.90
14727;DHT22;7454;51.256;8.176;2023-12-20T02:24:39;5.80;81.10
14727;DHT22;7454;51.256;8.176;2023-12-20T02:27:11;5.80;81.10
14727;DHT22;7454;51.256;8.176;2023-12-20T02:29:44;5.70;81.00
14727;DHT22;7454;51.256;8.176;2023-12-20T02:32:19;5.70;81.20
14727;DHT22;7454;51.256;8.176;2023-12-20T02:34:52;5.70;81.00
14727;DHT22;7454;51.256;8.176;2023-12-20T02:37:25;5.60;81.00
14727;DHT22;7454;51.256;8.176;2023-12-20T02:40:04;5.50;81.30
14727;DHT22;7454;51.256;8.176;2023-12-20T02:42:36;5.50;81.00
14727;DHT22;7454;51.256;8.176;2023-12-20T02:45:08;5.70;81.40
14727;DHT22;7454;51.256;8.176;2023-12-20T02:47:40;5.50;81.60
14727;DHT22;7454;51.256;8.176;2023-12-20T02:50:12;5.50;81.60
14727;DHT22;7454;51.256;8.176;2023-12-20T02:52:44;5.50;81.50
14727;DHT22;7454;51.256;8.176;2023-12-20T02:55:10;5.50;81.30
14727;DHT22;7454;51.256;8.176;2023-12-20T02:57:43;5.60;81.40
14727;DHT22;7454;51.256;8.176;2023-12-20T03:00:15;5.70;81.90
14727;DHT22;7454;51.256;8.176;2023-12-20T03:02:47;5.50;81.00
14727;DHT22;7454;51.256;8.176;2023-12-20T03:05:19;5.50;81.30
14727;DHT22;7454;51.256;8.176;2023-12-20T03:07:52;5.70;81.40
14727;DHT22;7454;51.256;8.176;2023-12-20T03:10:24;5.50;81.40
14727;DHT22;7454;51.256;8.176;2023-12-20T03:13:03;5.50;81.30
14727;DHT22;7454;51.256;8.176;2023-12-20T03:15:36;5.50;81.50
14727;DHT22;7454;51.256;8.176;2023-12-20T03:18:09;5.50;81.20
14727;DHT22;7454;51.256;8.176;2023-12-20T03:20:41;5.50;81.10
14727;DHT22;7454;51.256;8.176;2023-12-20T03:23:13;5.50;81.20
14727;DHT22;7454;51.256;8.176;2023-12-20T03:25:45;5.50;80.90
14727;DHT22;7454;51.256;8.176;2023-12-20T03:28:17;5.50;80.90
14727;DHT22;7454;51.256;8.176;2023-12-20T03:30:49;5.40;80.80
14727;DHT22;7454;51.256;8.176;2023-12-20T03:33:21;5.40;80.80
14727;DHT22;7454;51.256;8.176;2023-12-20T03:35:53;5.30;80.70
14727;DHT22;7454;51.256;8.176;2023-12-20T03:38:32;5.30;80.60
14727;DHT22;7454;51.256;8.176;2023-12-20T03:41:04;5.30;80.60
14727;DHT22;7454;51.256;8.176;2023-12-20T03:43:36;5.50;81.10
14727;DHT22;7454;51.256;8.176;2023-12-20T03:46:02;5.20;81.00
14727;DHT22;7454;51.256;8.176;2023-12-20T03:48:35;5.20;81.10
14727;DHT22;7454;51.256;8.176;2023-12-20T03:51:07;5.20;81.30
14727;DHT22;7454;51.256;8.176;2023-12-20T03:53:33;5.20;80.90
14727;DHT22;7454;51.256;8.176;2023-12-20T03:56:05;5.20;81.00
14727;DHT22;7454;51.256;8.176;2023-12-20T03:58:38;5.20;81.10
14727;DHT22;7454;51.256;8.176;2023-12-20T04:01:10;5.30;81.30
14727;DHT22;7454;51.256;8.176;2023-12-20T04:03:44;5.20;81.00
14727;DHT22;7454;51.256;8.176;2023-12-20T04:06:19;5.20;81.20
14727;DHT22;7454;51.256;8.176;2023-12-20T04:08:51;5.20;81.00
14727;DHT22;7454;51.256;8.176;2023-12-20T04:11:24;5.20;81.10
14727;DHT22;7454;51.256;8.176;2023-12-20T04:13:56;5.20;80.80
14727;DHT22;7454;51.256;8.176;2023-12-20T04:16:31;5.20;81.30
14727;DHT22;7454;51.256;8.176;2023-12-20T04:19:03;5.20;80.90
14727;DHT22;7454;51.256;8.176;2023-12-20T04:21:35;5.10;80.60
14727;DHT22;7454;51.256;8.176;2023-12-20T04:24:07;5.20;80.20
14727;DHT22;7454;51.256;8.176;2023-12-20T04:26:40;5.00;80.00
14727;DHT22;7454;51.256;8.176;2023-12-20T04:29:12;5.10;80.10
14727;DHT22;7454;51.256;8.176;2023-12-20T04:31:44;5.10;80.30
14727;DHT22;7454;51.256;8.176;2023-12-20T04:34:23;5.10;80.40
14727;DHT22;7454;51.256;8.176;2023-12-20T04:36:55;5.10;80.30
14727;DHT22;7454;51.256;8.176;2023-12-20T04:39:41;5.30;80.40
14727;DHT22;7454;51.256;8.176;2023-12-20T04:42:13;5.10;80.20
14727;DHT22;7454;51.256;8.176;2023-12-20T04:44:39;5.10;80.60
14727;DHT22;7454;51.256;8.176;2023-12-20T04:47:11;5.10;80.30
14727;DHT22;7454;51.256;8.176;2023-12-20T04:49:43;5.10;80.40
14727;DHT22;7454;51.256;8.176;2023-12-20T04:52:15;5.20;80.80
14727;DHT22;7454;51.256;8.176;2023-12-20T04:54:47;5.20;81.20
14727;DHT22;7454;51.256;8.176;2023-12-20T04:57:19;5.20;81.20
14727;DHT22;7454;51.256;8.176;2023-12-20T04:59:51;5.20;80.90
14727;DHT22;7454;51.256;8.176;2023-12-20T05:02:23;5.10;80.90
14727;DHT22;7454;51.256;8.176;2023-12-20T05:04:55;5.10;80.50
14727;DHT22;7454;51.256;8.176;2023-12-20T05:07:27;5.30;80.50
14727;DHT22;7454;51.256;8.176;2023-12-20T05:09:59;5.10;80.30
14727;DHT22;7454;51.256;8.176;2023-12-20T05:12:25;5.10;80.60
14727;DHT22;7454;51.256;8.176;2023-12-20T05:14:57;5.10;80.50
14727;DHT22;7454;51.256;8.176;2023-12-20T05:17:29;5.00;80.60
14727;DHT22;7454;51.256;8.176;2023-12-20T05:20:01;5.00;80.70
14727;DHT22;7454;51.256;8.176;2023-12-20T05:22:33;5.00;80.50
14727;DHT22;7454;51.256;8.176;2023-12-20T05:25:05;5.00;80.40
14727;DHT22;7454;51.256;8.176;2023-12-20T05:27:38;5.00;80.70
14727;DHT22;7454;51.256;8.176;2023-12-20T05:30:10;5.00;80.80
14727;DHT22;7454;51.256;8.176;2023-12-20T05:32:43;5.00;80.60
14727;DHT22;7454;51.256;8.176;2023-12-20T05:35:15;5.00;80.50
14727;DHT22;7454;51.256;8.176;2023-12-20T05:37:47;5.20;80.80
14727;DHT22;7454;51.256;8.176;2023-12-20T05:40:33;5.00;80.90
14727;DHT22;7454;51.256;8.176;2023-12-20T05:43:05;5.00;80.70
14727;DHT22;7454;51.256;8.176;2023-12-20T05:45:37;5.00;80.50
14727;DHT22;7454;51.256;8.176;2023-12-20T05:48:03;5.00;80.80
14727;DHT22;7454;51.256;8.176;2023-12-20T05:50:36;5.00;80.70
14727;DHT22;7454;51.256;8.176;2023-12-20T05:53:08;5.00;80.70
14727;DHT22;7454;51.256;8.176;2023-12-20T05:55:40;5.00;80.70
14727;DHT22;7454;51.256;8.176;2023-12-20T05:58:12;5.20;81.00
14727;DHT22;7454;51.256;8.176;2023-12-20T06:00:56;5.00;80.70
14727;DHT22;7454;51.256;8.176;2023-12-20T06:06:41;5.10;80.50
14727;DHT22;7454;51.256;8.176;2023-12-20T06:09:54;4.90;80.40
14727;DHT22;7454;51.256;8.176;2023-12-20T06:13:21;5.10;80.60
14727;DHT22;7454;51.256;8.176;2023-12-20T06:16:29;5.20;80.40
14727;DHT22;7454;51.256;8.176;2023-12-20T06:19:02;5.10;80.80
14727;DHT22;7454;51.256;8.176;2023-12-20T06:21:34;5.10;80.70
14727;DHT22;7454;51.256;8.176;2023-12-20T06:24:08;5.10;80.90
14727;DHT22;7454;51.256;8.176;2023-12-20T06:26:44;5.10;80.80
14727;DHT22;7454;51.256;8.176;2023-12-20T06:29:16;5.10;80.80
14727;DHT22;7454;51.256;8.176;2023-12-20T06:31:48;5.10;80.60
14727;DHT22;7454;51.256;8.176;2023-12-20T06:34:20;5.10;80.70
14727;DHT22;7454;51.256;8.176;2023-12-20T06:36:52;5.10;80.50
14727;DHT22;7454;51.256;8.176;2023-12-20T06:39:24;5.10;80.80
14727;DHT22;7454;51.256;8.176;2023-12-20T06:42:03;5.10;80.50
14727;DHT22;7454;51.256;8.176;2023-12-20T06:44:35;5.10;80.50
14727;DHT22;7454;51.256;8.176;2023-12-20T06:47:08;5.00;80.70
14727;DHT22;7454;51.256;8.176;2023-12-20T06:49:40;5.10;80.60
14727;DHT22;7454;51.256;8.176;2023-12-20T06:52:06;5.20;80.60
14727;DHT22;7454;51.256;8.176;2023-12-20T06:54:38;5.10;80.90
14727;DHT22;7454;51.256;8.176;2023-12-20T06:57:14;5.10;80.70
14727;DHT22;7454;51.256;8.176;2023-12-20T06:59:46;5.10;80.60
14727;DHT22;7454;51.256;8.176;2023-12-20T07:02:15;5.10;80.80
14727;DHT22;7454;51.256;8.176;2023-12-20T07:04:50;5.10;80.60
14727;DHT22;7454;51.256;8.176;2023-12-20T07:07:22;5.10;80.60
14727;DHT22;7454;51.256;8.176;2023-12-20T07:09:56;5.30;80.80
14727;DHT22;7454;51.256;8.176;2023-12-20T07:12:28;5.10;80.40
14727;DHT22;7454;51.256;8.176;2023-12-20T07:15:00;5.00;80.50
14727;DHT22;7454;51.256;8.176;2023-12-20T07:17:32;5.10;80.50
14727;DHT22;7454;51.256;8.176;2023-12-20T07:20:05;5.10;80.30
14727;DHT22;7454;51.256;8.176;2023-12-20T07:22:41;5.10;80.80
14727;DHT22;7454;51.256;8.176;2023-12-20T07:25:19;5.10;80.40
14727;DHT22;7454;51.256;8.176;2023-12-20T07:27:54;5.10;80.40
14727;DHT22;7454;51.256;8.176;2023-12-20T07:30:26;5.10;80.60
14727;DHT22;7454;51.256;8.176;2023-12-20T07:32:58;5.10;80.60
14727;DHT22;7454;51.256;8.176;2023-12-20T07:35:30;5.10;80.80
14727;DHT22;7454;51.256;8.176;2023-12-20T07:38:09;5.00;80.70
14727;DHT22;7454;51.256;8.176;2023-12-20T07:40:41;5.00;80.80
14727;DHT22;7454;51.256;8.176;2023-12-20T07:43:20;5.00;80.50
14727;DHT22;7454;51.256;8.176;2023-12-20T07:45:53;5.00;80.50
14727;DHT22;7454;51.256;8.176;2023-12-20T07:48:25;5.00;80.40
14727;DHT22;7454;51.256;8.176;2023-12-20T07:50:51;5.10;80.90
14727;DHT22;7454;51.256;8.176;2023-12-20T07:53:25;5.10;80.90
14727;DHT22;7454;51.256;8.176;2023-12-20T07:55:57;5.00;81.20
14727;DHT22;7454;51.256;8.176;2023-12-20T07:58:29;5.10;81.00
14727;DHT22;7454;51.256;8.176;2023-12-20T08:01:02;5.10;80.80
14727;DHT22;7454;51.256;8.176;2023-12-20T08:03:34;5.00;80.60
14727;DHT22;7454;51.256;8.176;2023-12-20T08:06:06;5.00;80.50
14727;DHT22;7454;51.256;8.176;2023-12-20T08:08:38;5.00;80.70
14727;DHT22;7454;51.256;8.176;2023-12-20T08:11:04;5.10;80.90
14727;DHT22;7454;51.256;8.176;2023-12-20T08:13:36;5.20;80.90
14727;DHT22;7454;51.256;8.176;2023-12-20T08:16:08;5.10;80.70
14727;DHT22;7454;51.256;8.176;2023-12-20T08:18:40;5.20;80.50
14727;DHT22;7454;51.256;8.176;2023-12-20T08:21:12;5.00;81.10
14727;DHT22;7454;51.256;8.176;2023-12-20T08:23:44;5.00;80.90
14727;DHT22;7454;51.256;8.176;2023-12-20T08:26:18;5.00;80.70
14727;DHT22;7454;51.256;8.176;2023-12-20T08:29:00;5.10;80.70
14727;DHT22;7454;51.256;8.176;2023-12-20T08:31:33;5.00;80.30
14727;DHT22;7454;51.256;8.176;2023-12-20T08:34:02;5.00;80.60
14727;DHT22;7454;51.256;8.176;2023-12-20T08:36:35;5.10;80.60
14727;DHT22;7454;51.256;8.176;2023-12-20T08:39:14;5.10;80.60
14727;DHT22;7454;51.256;8.176;2023-12-20T08:41:46;5.10;80.80
14727;DHT22;7454;51.256;8.176;2023-12-20T08:44:18;5.10;80.60
14727;DHT22;7454;51.256;8.176;2023-12-20T08:46:54;5.10;80.70
14727;DHT22;7454;51.256;8.176;2023-12-20T08:49:28;5.10;80.30
14727;DHT22;7454;51.256;8.176;2023-12-20T08:52:03;5.10;80.80
14727;DHT22;7454;51.256;8.176;2023-12-20T08:54:35;5.10;80.60
14727;DHT22;7454;51.256;8.176;2023-12-20T08:57:07;5.10;81.00
14727;DHT22;7454;51.256;8.176;2023-12-20T08:59:39;5.10;80.70
14727;DHT22;7454;51.256;8.176;2023-12-20T09:02:11;5.30;80.80
14727;DHT22;7454;51.256;8.176;2023-12-20T09:04:44;5.10;80.70
14727;DHT22;7454;51.256;8.176;2023-12-20T09:09:58;5.10;80.90
14727;DHT22;7454;51.256;8.176;2023-12-20T09:12:37;5.10;80.50
14727;DHT22;7454;51.256;8.176;2023-12-20T09:15:12;5.10;80.70
14727;DHT22;7454;51.256;8.176;2023-12-20T09:17:38;5.20;80.40
14727;DHT22;7454;51.256;8.176;2023-12-20T09:20:11;5.20;80.30
14727;DHT22;7454;51.256;8.176;2023-12-20T09:22:48;5.30;80.80
14727;DHT22;7454;51.256;8.176;2023-12-20T09:25:20;5.10;80.70
14727;DHT22;7454;51.256;8.176;2023-12-20T09:27:54;5.20;80.80
14727;DHT22;7454;51.256;8.176;2023-12-20T09:30:27;5.20;80.40
14727;DHT22;7454;51.256;8.176;2023-12-20T09:32:59;5.00;80.40
14727;DHT22;7454;51.256;8.176;2023-12-20T09:35:31;5.20;80.60
14727;DHT22;7454;51.256;8.176;2023-12-20T09:38:03;5.20;80.80
14727;DHT22;7454;51.256;8.176;2023-12-20T09:40:35;5.20;80.70
14727;DHT22;7454;51.256;8.176;2023-12-20T09:43:13;5.10;80.50
14727;DHT22;7454;51.256;8.176;2023-12-20T09:45:47;5.20;80.60
14727;DHT22;7454;51.256;8.176;2023-12-20T09:48:19;5.20;80.50
14727;DHT22;7454;51.256;8.176;2023-12-20T09:50:55;5.20;80.70
14727;DHT22;7454;51.256;8.176;2023-12-20T09:54:20;5.10;80.70
14727;DHT22;7454;51.256;8.176;2023-12-20T09:56:53;5.20;80.80
14727;DHT22;7454;51.256;8.176;2023-12-20T09:59:25;5.40;80.60
14727;DHT22;7454;51.256;8.176;2023-12-20T10:01:57;5.20;80.70
14727;DHT22;7454;51.256;8.176;2023-12-20T10:04:29;5.20;80.80
14727;DHT22;7454;51.256;8.176;2023-12-20T10:07:06;5.20;80.30
14727;DHT22;7454;51.256;8.176;2023-12-20T10:09:41;5.30;80.60
14727;DHT22;7454;51.256;8.176;2023-12-20T10:12:20;5.20;80.40
14727;DHT22;7454;51.256;8.176;2023-12-20T10:14:52;5.30;80.60
14727;DHT22;7454;51.256;8.176;2023-12-20T10:18:04;5.30;80.80
14727;DHT22;7454;51.256;8.176;2023-12-20T10:20:37;5.20;80.80
14727;DHT22;7454;51.256;8.176;2023-12-20T10:23:10;5.30;80.70
14727;DHT22;7454;51.256;8.176;2023-12-20T10:25:42;5.30;80.90
14727;DHT22;7454;51.256;8.176;2023-12-20T10:28:16;5.30;80.50
14727;DHT22;7454;51.256;8.176;2023-12-20T10:30:54;5.40;80.90
14727;DHT22;7454;51.256;8.176;2023-12-20T10:33:29;5.30;80.80
14727;DHT22;7454;51.256;8.176;2023-12-20T10:36:17;5.30;80.60
14727;DHT22;7454;51.256;8.176;2023-12-20T10:38:54;5.30;80.80
14727;DHT22;7454;51.256;8.176;2023-12-20T10:41:41;5.30;80.50
14727;DHT22;7454;51.256;8.176;2023-12-20T10:44:14;5.40;80.90
14727;DHT22;7454;51.256;8.176;2023-12-20T10:46:41;5.40;80.60
14727;DHT22;7454;51.256;8.176;2023-12-20T10:49:19;5.40;80.70
14727;DHT22;7454;51.256;8.176;2023-12-20T10:51:52;5.40;80.50
14727;DHT22;7454;51.256;8.176;2023-12-20T10:54:26;5.40;80.50
14727;DHT22;7454;51.256;8.176;2023-12-20T10:56:58;5.60;80.80
14727;DHT22;7454;51.256;8.176;2023-12-20T10:59:35;5.40;80.80
14727;DHT22;7454;51.256;8.176;2023-12-20T11:02:09;5.40;80.70
14727;DHT22;7454;51.256;8.176;2023-12-20T11:07:43;5.40;80.60
14727;DHT22;7454;51.256;8.176;2023-12-20T11:10:26;5.40;81.00
14727;DHT22;7454;51.256;8.176;2023-12-20T11:13:16;5.40;80.70
14727;DHT22;7454;51.256;8.176;2023-12-20T11:15:51;5.40;81.00
14727;DHT22;7454;51.256;8.176;2023-12-20T11:18:32;5.50;80.80
14727;DHT22;7454;51.256;8.176;2023-12-20T11:21:04;5.40;80.90
14727;DHT22;7454;51.256;8.176;2023-12-20T11:23:36;5.50;80.90
14727;DHT22;7454;51.256;8.176;2023-12-20T11:26:09;5.50;80.90
14727;DHT22;7454;51.256;8.176;2023-12-20T11:28:48;5.50;81.20
14727;DHT22;7454;51.256;8.176;2023-12-20T11:31:21;5.50;80.90
14727;DHT22;7454;51.256;8.176;2023-12-20T11:33:53;5.50;81.20
14727;DHT22;7454;51.256;8.176;2023-12-20T11:36:45;5.50;81.20
14727;DHT22;7454;51.256;8.176;2023-12-20T11:39:20;5.50;81.00
14727;DHT22;7454;51.256;8.176;2023-12-20T11:42:07;5.50;81.00
14727;DHT22;7454;51.256;8.176;2023-12-20T11:44:39;5.50;80.80
14727;DHT22;7454;51.256;8.176;2023-12-20T11:47:14;5.40;81.30
14727;DHT22;7454;51.256;8.176;2023-12-20T11:49:51;5.60;81.30
14727;DHT22;7454;51.256;8.176;2023-12-20T11:52:23;5.70;81.60
14727;DHT22;7454;51.256;8.176;2023-12-20T11:54:56;5.50;81.10
14727;DHT22;7454;51.256;8.176;2023-12-20T11:57:28;5.40;81.10
14727;DHT22;7454;51.256;8.176;2023-12-20T12:00:02;5.40;81.20
14727;DHT22;7454;51.256;8.176;2023-12-20T12:02:38;5.40;81.30
14727;DHT22;7454;51.256;8.176;2023-12-20T12:05:17;5.50;81.30
14727;DHT22;7454;51.256;8.176;2023-12-20T12:07:49;5.40;81.30
14727;DHT22;7454;51.256;8.176;2023-12-20T12:10:21;5.70;81.30
14727;DHT22;7454;51.256;8.176;2023-12-20T12:12:54;5.40;81.00
14727;DHT22;7454;51.256;8.176;2023-12-20T12:15:27;5.50;81.50
14727;DHT22;7454;51.256;8.176;2023-12-20T12:17:53;5.50;81.10
14727;DHT22;7454;51.256;8.176;2023-12-20T12:20:27;5.50;81.20
14727;DHT22;7454;51.256;8.176;2023-12-20T12:23:00;5.40;80.80
14727;DHT22;7454;51.256;8.176;2023-12-20T12:25:36;5.40;81.00
14727;DHT22;7454;51.256;8.176;2023-12-20T12:28:12;5.40;81.30
14727;DHT22;7454;51.256;8.176;2023-12-20T12:30:55;5.50;81.40
14727;DHT22;7454;51.256;8.176;2023-12-20T12:33:29;5.30;81.20
14727;DHT22;7454;51.256;8.176;2023-12-20T12:36:01;5.50;81.80
14727;DHT22;7454;51.256;8.176;2023-12-20T12:38:35;5.50;81.50
14727;DHT22;7454;51.256;8.176;2023-12-20T12:41:21;5.50;81.60
14727;DHT22;7454;51.256;8.176;2023-12-20T12:43:53;5.50;81.40
14727;DHT22;7454;51.256;8.176;2023-12-20T12:46:25;5.50;81.60
14727;DHT22;7454;51.256;8.176;2023-12-20T12:48:57;5.40;81.90
14727;DHT22;7454;51.256;8.176;2023-12-20T12:51:29;5.40;81.50
14727;DHT22;7454;51.256;8.176;2023-12-20T12:54:01;5.50;81.30
14727;DHT22;7454;51.256;8.176;2023-12-20T12:56:27;5.50;81.10
14727;DHT22;7454;51.256;8.176;2023-12-20T12:58:59;5.50;81.60
14727;DHT22;7454;51.256;8.176;2023-12-20T13:01:31;5.50;81.10
14727;DHT22;7454;51.256;8.176;2023-12-20T13:04:03;5.50;81.30
14727;DHT22;7454;51.256;8.176;2023-12-20T13:06:38;5.40;81.20
14727;DHT22;7454;51.256;8.176;2023-12-20T13:09:06;5.50;81.40
14727;DHT22;7454;51.256;8.176;2023-12-20T13:11:38;5.50;81.40
14727;DHT22;7454;51.256;8.176;2023-12-20T13:14:10;5.50;81.30
14727;DHT22;7454;51.256;8.176;2023-12-20T13:16:46;5.70;81.50
14727;DHT22;7454;51.256;8.176;2023-12-20T13:19:18;5.50;81.40
14727;DHT22;7454;51.256;8.176;2023-12-20T13:21:50;5.50;81.60
14727;DHT22;7454;51.256;8.176;2023-12-20T13:24:22;5.60;81.30
14727;DHT22;7454;51.256;8.176;2023-12-20T13:26:55;5.50;81.50
14727;DHT22;7454;51.256;8.176;2023-12-20T13:29:27;5.50;81.30
14727;DHT22;7454;51.256;8.176;2023-12-20T13:31:59;5.40;81.00
14727;DHT22;7454;51.256;8.176;2023-12-20T13:34:31;5.50;81.40
14727;DHT22;7454;51.256;8.176;2023-12-20T13:37:03;5.70;81.30
14727;DHT22;7454;51.256;8.176;2023-12-20T13:39:36;5.50;81.20
14727;DHT22;7454;51.256;8.176;2023-12-20T13:42:15;5.60;81.50
14727;DHT22;7454;51.256;8.176;2023-12-20T13:44:47;5.50;80.80
14727;DHT22;7454;51.256;8.176;2023-12-20T13:47:19;5.60;81.10
14727;DHT22;7454;51.256;8.176;2023-12-20T13:49:51;5.60;80.90
14727;DHT22;7454;51.256;8.176;2023-12-20T13:52:23;5.60;81.10
14727;DHT22;7454;51.256;8.176;2023-12-20T13:54:49;5.70;80.80
14727;DHT22;7454;51.256;8.176;2023-12-20T13:57:21;5.60;80.50
14727;DHT22;7454;51.256;8.176;2023-12-20T13:59:53;5.70;80.80
14727;DHT22;7454;51.256;8.176;2023-12-20T14:02:25;5.70;80.90
14727;DHT22;7454;51.256;8.176;2023-12-20T14:04:58;5.60;80.80
14727;DHT22;7454;51.256;8.176;2023-12-20T14:07:30;5.80;80.80
14727;DHT22;7454;51.256;8.176;2023-12-20T14:10:03;5.70;80.80
14727;DHT22;7454;51.256;8.176;2023-12-20T14:12:35;5.70;80.80
14727;DHT22;7454;51.256;8.176;2023-12-20T14:15:09;5.80;80.70
14727;DHT22;7454;51.256;8.176;2023-12-20T14:17:42;5.70;81.10
14727;DHT22;7454;51.256;8.176;2023-12-20T14:20:14;5.80;81.30
14727;DHT22;7454;51.256;8.176;2023-12-20T14:22:47;5.70;80.90
14727;DHT22;7454;51.256;8.176;2023-12-20T14:25:19;6.00;81.30
14727;DHT22;7454;51.256;8.176;2023-12-20T14:27:51;5.80;80.80
14727;DHT22;7454;51.256;8.176;2023-12-20T14:30:23;5.80;81.30
14727;DHT22;7454;51.256;8.176;2023-12-20T14:32:55;5.90;81.30
14727;DHT22;7454;51.256;8.176;2023-12-20T14:35:27;5.80;81.50
14727;DHT22;7454;51.256;8.176;2023-12-20T14:38:06;5.90;81.40
14727;DHT22;7454;51.256;8.176;2023-12-20T14:40:38;5.80;81.20
14727;DHT22;7454;51.256;8.176;2023-12-20T14:43:13;5.70;80.90
14727;DHT22;7454;51.256;8.176;2023-12-20T14:45:45;5.70;81.20
14727;DHT22;7454;51.256;8.176;2023-12-20T14:48:17;5.70;81.70
14727;DHT22;7454;51.256;8.176;2023-12-20T14:50:43;5.70;81.30
14727;DHT22;7454;51.256;8.176;2023-12-20T14:53:15;5.70;81.70
14727;DHT22;7454;51.256;8.176;2023-12-20T14:55:48;5.70;81.60
14727;DHT22;7454;51.256;8.176;2023-12-20T14:58:16;5.60;81.90
14727;DHT22;7454;51.256;8.176;2023-12-20T15:00:48;5.60;81.90
14727;DHT22;7454;51.256;8.176;2023-12-20T15:03:20;5.70;81.70
14727;DHT22;7454;51.256;8.176;2023-12-20T15:05:58;5.70;82.00
14727;DHT22;7454;51.256;8.176;2023-12-20T15:08:50;5.70;81.60
14727;DHT22;7454;51.256;8.176;2023-12-20T15:11:27;5.70;81.70
14727;DHT22;7454;51.256;8.176;2023-12-20T15:14:08;5.90;82.00
14727;DHT22;7454;51.256;8.176;2023-12-20T15:16:53;5.70;82.10
14727;DHT22;7454;51.256;8.176;2023-12-20T15:19:27;5.70;81.10
14727;DHT22;7454;51.256;8.176;2023-12-20T15:22:03;5.80;81.20
14727;DHT22;7454;51.256;8.176;2023-12-20T15:24:53;5.60;81.30
14727;DHT22;7454;51.256;8.176;2023-12-20T15:27:27;5.60;81.40
14727;DHT22;7454;51.256;8.176;2023-12-20T15:29:55;5.70;81.90
14727;DHT22;7454;51.256;8.176;2023-12-20T15:32:28;5.70;81.60
14727;DHT22;7454;51.256;8.176;2023-12-20T15:35:01;5.70;81.70
14727;DHT22;7454;51.256;8.176;2023-12-20T15:37:34;5.70;81.40
14727;DHT22;7454;51.256;8.176;2023-12-20T15:40:13;5.70;81.70
14727;DHT22;7454;51.256;8.176;2023-12-20T15:42:45;5.70;81.80
14727;DHT22;7454;51.256;8.176;2023-12-20T15:45:17;5.70;81.30
14727;DHT22;7454;51.256;8.176;2023-12-20T15:47:49;5.70;81.30
14727;DHT22;7454;51.256;8.176;2023-12-20T15:50:21;5.70;81.60
14727;DHT22;7454;51.256;8.176;2023-12-20T15:52:53;5.70;81.40
14727;DHT22;7454;51.256;8.176;2023-12-20T15:55:39;5.90;81.30
14727;DHT22;7454;51.256;8.176;2023-12-20T15:58:44;5.70;81.80
14727;DHT22;7454;51.256;8.176;2023-12-20T16:01:48;5.70;81.20
14727;DHT22;7454;51.256;8.176;2023-12-20T16:04:37;5.70;81.00
14727;DHT22;7454;51.256;8.176;2023-12-20T16:07:15;5.80;81.40
14727;DHT22;7454;51.256;8.176;2023-12-20T16:09:58;5.90;81.10
14727;DHT22;7454;51.256;8.176;2023-12-20T16:12:46;5.80;80.90
14727;DHT22;7454;51.256;8.176;2023-12-20T16:15:27;5.80;81.20
14727;DHT22;7454;51.256;8.176;2023-12-20T16:18:09;6.00;81.20
14727;DHT22;7454;51.256;8.176;2023-12-20T16:20:42;5.80;80.90
14727;DHT22;7454;51.256;8.176;2023-12-20T16:23:14;6.00;81.10
14727;DHT22;7454;51.256;8.176;2023-12-20T16:25:47;5.90;81.10
14727;DHT22;7454;51.256;8.176;2023-12-20T16:28:22;5.80;81.20
14727;DHT22;7454;51.256;8.176;2023-12-20T16:30:54;5.80;81.00
14727;DHT22;7454;51.256;8.176;2023-12-20T16:33:27;5.90;81.40
14727;DHT22;7454;51.256;8.176;2023-12-20T16:36:06;5.90;81.50
14727;DHT22;7454;51.256;8.176;2023-12-20T16:38:41;5.90;81.60
14727;DHT22;7454;51.256;8.176;2023-12-20T16:41:27;5.90;81.30
14727;DHT22;7454;51.256;8.176;2023-12-20T16:43:59;5.90;81.70
14727;DHT22;7454;51.256;8.176;2023-12-20T16:46:25;5.90;81.40
14727;DHT22;7454;51.256;8.176;2023-12-20T16:48:57;5.90;81.50
14727;DHT22;7454;51.256;8.176;2023-12-20T16:51:29;5.90;81.20
14727;DHT22;7454;51.256;8.176;2023-12-20T16:53:55;6.10;81.60
14727;DHT22;7454;51.256;8.176;2023-12-20T16:56:28;5.90;81.60
14727;DHT22;7454;51.256;8.176;2023-12-20T16:59:00;5.90;81.80